Time;durP1;ratioP1;P1;durP2;ratioP2;P2;SDS_P1;SDS_P2;PMS_P1;PMS_P2;Temp;Humidity;BMP_temperature;BMP_pressure;BME280_temperature;BME280_humidity;BME280_pressure;Samples;Min_cycle;Max_cycle;Signal;HPM_P1;HPM_P2
2021/12/03 00:01:06;;;;;;;13.02;6.72;;;1.00;99.90;;;;;;5017615;28;20022;-73
2021/12/03 00:03:33;;;;;;;11.25;5.85;;;1.00;99.90;;;;;;5018617;28;20125;-73
2021/12/03 00:05:59;;;;;;;15.40;6.30;;;1.00;99.90;;;;;;5015176;28;20160;-73
2021/12/03 00:08:26;;;;;;;11.65;6.53;;;1.00;99.90;;;;;;5015009;28;20523;-73
2021/12/03 00:10:57;;;;;;;10.05;6.80;;;1.00;99.90;;;;;;5014171;28;20400;-73
2021/12/03 00:13:24;;;;;;;11.43;5.85;;;1.10;99.90;;;;;;5017772;28;20033;-73
2021/12/03 00:15:51;;;;;;;9.40;5.95;;;1.10;99.90;;;;;;5016258;28;20058;-74
2021/12/03 00:18:17;;;;;;;9.48;5.85;;;1.10;99.90;;;;;;5018551;28;20061;-74
2021/12/03 00:20:43;;;;;;;8.30;5.45;;;1.10;99.90;;;;;;5018311;28;20427;-75
2021/12/03 00:23:09;;;;;;;10.82;6.20;;;1.10;99.90;;;;;;5023284;28;20029;-74
2021/12/03 00:25:36;;;;;;;8.95;5.28;;;1.00;99.90;;;;;;5020244;28;20025;-73
2021/12/03 00:28:04;;;;;;;9.65;5.38;;;1.00;99.90;;;;;;5019693;28;20029;-72
2021/12/03 00:30:31;;;;;;;10.57;5.97;;;1.00;99.90;;;;;;5021831;28;20025;-73
2021/12/03 00:32:56;;;;;;;7.93;4.90;;;1.00;99.90;;;;;;5021859;28;20030;-73
2021/12/03 00:35:22;;;;;;;8.65;5.38;;;1.00;99.90;;;;;;5019689;28;20033;-72
2021/12/03 00:37:49;;;;;;;8.13;4.82;;;1.00;99.90;;;;;;5019258;28;20108;-73
2021/12/03 00:40:20;;;;;;;7.70;4.78;;;1.00;99.90;;;;;;5022110;28;20025;-73
2021/12/03 00:42:46;;;;;;;9.25;5.80;;;1.00;99.90;;;;;;5020070;28;20081;-73
2021/12/03 00:45:12;;;;;;;11.13;5.63;;;1.00;99.90;;;;;;5022497;28;20040;-73
2021/12/03 00:47:40;;;;;;;11.55;5.63;;;1.00;99.90;;;;;;5022145;28;20062;-72
2021/12/03 00:50:10;;;;;;;8.43;4.93;;;1.00;99.90;;;;;;5019973;28;20038;-75
2021/12/03 00:52:36;;;;;;;8.50;4.75;;;1.00;99.90;;;;;;5021493;28;20082;-73
2021/12/03 00:55:04;;;;;;;12.18;4.63;;;1.00;99.90;;;;;;5000386;28;20194;-73
2021/12/03 00:57:30;;;;;;;8.73;3.97;;;1.10;99.90;;;;;;5019989;28;20022;-73
2021/12/03 00:59:56;;;;;;;8.20;4.22;;;1.10;99.90;;;;;;5017169;28;20030;-74
2021/12/03 01:02:21;;;;;;;5.32;3.53;;;1.10;99.90;;;;;;5019467;28;20029;-73
2021/12/03 01:04:48;;;;;;;10.23;3.60;;;1.10;99.90;;;;;;5001421;28;20381;-74
2021/12/03 01:07:14;;;;;;;6.50;3.42;;;1.20;99.90;;;;;;5020501;28;20029;-73
2021/12/03 01:09:40;;;;;;;4.85;3.13;;;1.20;99.90;;;;;;5020535;28;20029;-73
2021/12/03 01:12:06;;;;;;;5.90;3.30;;;1.20;99.90;;;;;;5001796;28;20112;-73
2021/12/03 01:14:33;;;;;;;5.20;2.65;;;1.20;99.90;;;;;;5019034;28;20033;-73
2021/12/03 01:16:58;;;;;;;5.43;2.90;;;1.20;99.90;;;;;;5019467;28;20031;-73
2021/12/03 01:19:24;;;;;;;8.07;2.92;;;1.20;99.90;;;;;;5021504;28;20037;-73
2021/12/03 01:21:50;;;;;;;7.82;2.90;;;1.20;99.90;;;;;;5018107;28;20053;-73
2021/12/03 01:24:17;;;;;;;6.07;2.90;;;1.20;99.90;;;;;;5018347;28;20515;-73
2021/12/03 01:26:44;;;;;;;5.78;2.78;;;1.20;99.90;;;;;;5019775;28;20030;-73
2021/12/03 01:29:10;;;;;;;4.93;2.42;;;1.10;99.90;;;;;;5021793;28;20117;-73
2021/12/03 01:31:36;;;;;;;7.15;3.42;;;1.10;99.90;;;;;;5021621;28;20117;-73
2021/12/03 01:34:02;;;;;;;6.57;3.83;;;1.10;99.90;;;;;;5005464;28;20034;-73
2021/12/03 01:36:28;;;;;;;8.38;3.80;;;1.10;99.90;;;;;;5019311;28;20072;-73
2021/12/03 01:38:53;;;;;;;6.85;3.80;;;1.10;99.90;;;;;;5019183;28;20444;-73
2021/12/03 01:41:19;;;;;;;9.57;3.80;;;1.10;99.90;;;;;;5019088;28;20035;-73
2021/12/03 01:43:45;;;;;;;7.00;3.70;;;1.10;99.90;;;;;;5018410;28;20032;-73
2021/12/03 01:46:13;;;;;;;7.95;4.30;;;1.10;99.90;;;;;;5019325;28;20060;-73
2021/12/03 01:48:39;;;;;;;7.60;4.55;;;1.10;99.90;;;;;;5003794;28;20083;-72
2021/12/03 01:51:07;;;;;;;11.05;5.18;;;1.10;99.90;;;;;;5017373;28;20022;-73
2021/12/03 01:53:36;;;;;;;9.05;4.55;;;1.10;99.90;;;;;;5004082;28;20068;-73
2021/12/03 01:56:06;;;;;;;12.70;5.00;;;1.10;99.90;;;;;;5018741;28;20387;-73
2021/12/03 01:58:32;;;;;;;8.40;5.35;;;1.10;99.90;;;;;;5020876;28;20041;-73
2021/12/03 02:01:01;;;;;;;7.72;5.05;;;1.10;99.90;;;;;;5016270;28;20045;-73
2021/12/03 02:03:31;;;;;;;11.02;4.78;;;1.10;99.90;;;;;;5004008;28;20041;-73
2021/12/03 02:06:04;;;;;;;11.75;6.28;;;1.10;99.90;;;;;;5016244;28;20116;-73
2021/12/03 02:08:30;;;;;;;10.15;5.05;;;1.00;99.90;;;;;;5019275;28;20057;-73
2021/12/03 02:10:57;;;;;;;13.23;5.28;;;1.00;99.90;;;;;;5016869;28;20056;-73
2021/12/03 02:13:23;;;;;;;12.52;4.82;;;1.00;99.90;;;;;;5002177;28;20034;-75
2021/12/03 02:15:49;;;;;;;10.73;5.63;;;1.00;99.90;;;;;;5019433;28;20022;-71
2021/12/03 02:18:16;;;;;;;9.25;5.40;;;1.00;99.90;;;;;;5018553;28;20573;-75
2021/12/03 02:20:46;;;;;;;6.47;4.90;;;1.00;99.90;;;;;;5018904;28;20030;-72
2021/12/03 02:23:13;;;;;;;8.73;5.50;;;1.00;99.90;;;;;;5001076;28;20462;-74
2021/12/03 02:25:39;;;;;;;11.20;5.85;;;0.90;99.90;;;;;;5017914;28;20438;-72
2021/12/03 02:28:05;;;;;;;9.00;5.32;;;0.90;99.90;;;;;;5017999;28;20034;-72
2021/12/03 02:30:30;;;;;;;12.20;5.38;;;0.90;99.90;;;;;;5000442;28;20026;-72
2021/12/03 02:32:56;;;;;;;11.10;5.68;;;0.90;99.90;;;;;;5017043;28;20535;-72
2021/12/03 02:35:23;;;;;;;10.10;5.30;;;1.00;99.90;;;;;;5018496;28;20825;-72
2021/12/03 02:37:50;;;;;;;8.20;4.78;;;1.00;99.90;;;;;;5019725;28;20444;-73
2021/12/03 02:40:17;;;;;;;9.38;4.63;;;1.00;99.90;;;;;;5016688;28;20028;-72
2021/12/03 02:42:43;;;;;;;11.43;5.15;;;1.00;99.90;;;;;;5016204;28;20040;-73
2021/12/03 02:45:11;;;;;;;12.32;6.75;;;1.00;99.90;;;;;;5019131;28;20073;-72
2021/12/03 02:47:37;;;;;;;7.95;4.75;;;1.00;99.90;;;;;;5019717;28;20060;-72
2021/12/03 02:50:05;;;;;;;8.40;4.80;;;1.10;99.90;;;;;;5019208;28;20531;-72
2021/12/03 02:52:30;;;;;;;11.32;4.40;;;1.10;99.90;;;;;;5017304;28;20025;-72
2021/12/03 02:54:56;;;;;;;8.60;5.10;;;1.20;99.90;;;;;;5016491;28;20025;-72
2021/12/03 02:57:22;;;;;;;10.85;4.68;;;1.20;99.90;;;;;;5018399;28;20040;-73
2021/12/03 02:59:47;;;;;;;10.13;5.10;;;1.20;99.90;;;;;;5017169;28;20399;-73
2021/12/03 03:02:13;;;;;;;9.35;4.97;;;1.20;99.90;;;;;;4999652;28;20087;-73
2021/12/03 03:04:39;;;;;;;9.43;5.43;;;1.20;99.90;;;;;;5017904;28;20025;-72
2021/12/03 03:07:05;;;;;;;10.55;6.25;;;1.20;99.90;;;;;;5000235;28;20088;-73
2021/12/03 03:09:31;;;;;;;9.32;5.38;;;1.20;99.90;;;;;;5017803;28;20034;-73
2021/12/03 03:11:58;;;;;;;11.77;5.60;;;1.20;99.90;;;;;;5017561;28;20033;-72
2021/12/03 03:14:24;;;;;;;10.35;6.15;;;1.20;99.90;;;;;;5016754;28;20049;-73
2021/12/03 03:16:49;;;;;;;7.60;5.95;;;1.10;99.90;;;;;;5000372;28;20076;-73
2021/12/03 03:19:18;;;;;;;13.60;7.85;;;1.20;99.90;;;;;;5017622;28;20494;-73
2021/12/03 03:21:45;;;;;;;13.07;7.40;;;1.20;99.90;;;;;;5000237;28;20108;-73
2021/12/03 03:24:12;;;;;;;10.52;7.03;;;1.20;99.90;;;;;;5017256;28;20041;-72
2021/12/03 03:26:40;;;;;;;12.50;6.25;;;1.20;99.90;;;;;;5018952;28;20037;-73
2021/12/03 03:29:08;;;;;;;10.45;6.47;;;1.10;99.90;;;;;;5015053;28;20030;-72
2021/12/03 03:31:35;;;;;;;11.73;6.72;;;1.10;99.90;;;;;;5016533;28;20117;-73
2021/12/03 03:34:02;;;;;;;12.40;6.72;;;1.10;99.90;;;;;;5015893;28;20095;-73
2021/12/03 03:36:34;;;;;;;12.45;6.40;;;1.10;99.90;;;;;;5018114;28;20026;-73
2021/12/03 03:39:00;;;;;;;11.82;6.47;;;1.10;99.90;;;;;;5019021;28;20493;-73
2021/12/03 03:41:26;;;;;;;11.80;6.43;;;1.10;99.90;;;;;;5014088;28;20026;-73
2021/12/03 03:43:52;;;;;;;11.77;6.75;;;1.10;99.90;;;;;;5015033;28;20425;-73
2021/12/03 03:46:18;;;;;;;12.80;6.60;;;1.10;99.90;;;;;;5018428;28;20515;-73
2021/12/03 03:48:44;;;;;;;9.68;6.38;;;1.10;99.90;;;;;;5018493;28;20134;-73
2021/12/03 03:51:10;;;;;;;12.05;6.82;;;1.10;99.90;;;;;;5017540;28;20036;-73
2021/12/03 03:53:38;;;;;;;11.55;7.03;;;1.10;99.90;;;;;;5018843;28;20030;-73
2021/12/03 03:56:05;;;;;;;13.57;7.40;;;1.00;99.90;;;;;;5017611;28;20052;-72
2021/12/03 03:58:31;;;;;;;10.20;6.30;;;1.00;99.90;;;;;;5021586;28;20032;-73
2021/12/03 04:00:57;;;;;;;12.07;6.80;;;1.00;99.90;;;;;;5022070;28;20034;-73
2021/12/03 04:03:23;;;;;;;12.60;7.60;;;1.00;99.90;;;;;;5020930;28;20476;-73
2021/12/03 04:05:49;;;;;;;13.80;6.93;;;1.00;99.90;;;;;;5020489;28;20076;-73
2021/12/03 04:08:14;;;;;;;13.13;7.47;;;1.00;99.90;;;;;;5021899;28;20468;-73
2021/12/03 04:10:40;;;;;;;11.65;6.93;;;1.00;99.90;;;;;;5023157;28;20049;-73
2021/12/03 04:13:06;;;;;;;11.30;6.47;;;1.10;99.90;;;;;;5020745;28;20034;-73
2021/12/03 04:15:32;;;;;;;11.85;6.32;;;1.00;99.90;;;;;;5021843;28;20030;-73
2021/12/03 04:17:58;;;;;;;10.52;6.40;;;1.10;99.90;;;;;;5018460;28;20025;-73
2021/12/03 04:20:23;;;;;;;10.10;6.32;;;1.10;99.90;;;;;;5008547;28;20029;-73
2021/12/03 04:22:49;;;;;;;12.50;6.40;;;1.10;99.90;;;;;;5020396;28;20040;-73
2021/12/03 04:25:19;;;;;;;9.02;6.25;;;1.00;99.90;;;;;;5019514;28;20029;-72
2021/12/03 04:27:46;;;;;;;9.90;6.50;;;1.00;99.90;;;;;;5021131;28;20065;-72
2021/12/03 04:30:19;;;;;;;11.20;6.72;;;1.00;99.90;;;;;;5018455;28;20524;-73
2021/12/03 04:32:48;;;;;;;12.13;7.25;;;1.00;99.90;;;;;;5019110;28;20075;-73
2021/12/03 04:35:13;;;;;;;11.45;6.45;;;1.00;99.90;;;;;;5001309;28;20446;-73
2021/12/03 04:37:40;;;;;;;11.07;6.57;;;0.90;99.90;;;;;;5020558;28;20037;-73
2021/12/03 04:40:08;;;;;;;10.77;6.43;;;0.90;99.90;;;;;;5021115;28;20076;-73
2021/12/03 04:42:33;;;;;;;11.55;6.95;;;0.90;99.90;;;;;;5003144;28;20029;-73
2021/12/03 04:44:59;;;;;;;11.63;7.18;;;0.90;99.90;;;;;;4985271;28;20021;-73
2021/12/03 04:47:25;;;;;;;9.10;6.75;;;0.90;99.90;;;;;;5025788;28;20168;-73
2021/12/03 04:49:50;;;;;;;11.52;7.15;;;0.90;99.90;;;;;;5018550;28;20037;-73
2021/12/03 04:52:16;;;;;;;11.80;6.63;;;1.00;99.90;;;;;;5017557;28;21359;-72
2021/12/03 04:54:42;;;;;;;11.45;6.63;;;1.00;99.90;;;;;;5021130;28;20401;-73
2021/12/03 04:57:08;;;;;;;11.90;6.45;;;1.00;99.90;;;;;;5018585;28;20069;-73
2021/12/03 04:59:34;;;;;;;13.10;6.75;;;1.10;99.90;;;;;;5021806;28;20515;-73
2021/12/03 05:02:00;;;;;;;9.10;6.05;;;1.10;99.90;;;;;;5001814;28;20025;-73
2021/12/03 05:04:26;;;;;;;12.68;6.43;;;1.00;99.90;;;;;;5017993;28;20030;-74
2021/12/03 05:09:38;;;;;;;10.50;6.35;;;1.00;99.90;;;;;;5006480;28;20503;-74
2021/12/03 05:12:05;;;;;;;12.50;6.65;;;1.10;99.90;;;;;;5020034;28;20034;-74
2021/12/03 05:14:31;;;;;;;10.68;5.88;;;1.10;99.90;;;;;;5021542;28;20025;-74
2021/12/03 05:16:56;;;;;;;10.52;5.93;;;1.10;99.90;;;;;;5023420;28;20029;-74
2021/12/03 05:19:23;;;;;;;10.60;5.85;;;1.10;99.90;;;;;;5020368;28;20034;-74
2021/12/03 05:21:49;;;;;;;11.75;6.55;;;1.10;99.90;;;;;;5020127;28;20116;-74
2021/12/03 05:24:15;;;;;;;10.38;5.90;;;1.10;99.90;;;;;;5016640;28;20395;-74
2021/12/03 05:26:41;;;;;;;10.40;6.50;;;1.10;99.90;;;;;;5018013;28;20401;-74
2021/12/03 05:29:08;;;;;;;7.40;5.75;;;1.10;99.90;;;;;;5017442;28;20029;-73
2021/12/03 05:31:35;;;;;;;9.20;5.93;;;1.10;99.90;;;;;;5016597;28;20030;-75
2021/12/03 05:34:02;;;;;;;10.52;6.53;;;1.10;99.90;;;;;;5020452;28;20030;-74
2021/12/03 05:36:28;;;;;;;10.25;6.50;;;1.10;99.90;;;;;;5018552;28;20494;-74
2021/12/03 05:38:55;;;;;;;12.30;6.50;;;1.10;99.90;;;;;;5019748;28;20029;-74
2021/12/03 05:41:21;;;;;;;8.50;6.43;;;1.10;99.90;;;;;;5019530;28;20399;-74
2021/12/03 05:43:46;;;;;;;12.35;6.75;;;1.10;99.90;;;;;;5017749;28;20096;-75
2021/12/03 05:46:12;;;;;;;10.82;7.60;;;1.00;99.90;;;;;;5020546;28;20021;-74
2021/12/03 05:48:38;;;;;;;12.75;7.25;;;1.00;99.90;;;;;;5020363;28;20479;-74
2021/12/03 05:51:04;;;;;;;11.55;7.10;;;1.00;99.90;;;;;;5020992;28;20080;-74
2021/12/03 05:53:30;;;;;;;13.90;7.72;;;1.00;99.90;;;;;;5001503;28;20060;-74
2021/12/03 05:55:56;;;;;;;14.82;8.18;;;1.00;99.90;;;;;;5017495;28;20030;-75
2021/12/03 05:58:21;;;;;;;12.80;8.27;;;1.00;99.90;;;;;;5018092;28;20022;-73
2021/12/03 06:00:48;;;;;;;11.20;8.07;;;1.00;99.90;;;;;;5020698;28;20096;-73
2021/12/03 06:03:14;;;;;;;11.73;7.82;;;1.10;99.90;;;;;;5018247;28;20033;-74
2021/12/03 06:05:42;;;;;;;14.02;7.65;;;1.00;99.90;;;;;;5021573;28;20552;-74
2021/12/03 06:08:09;;;;;;;11.10;7.72;;;1.10;99.90;;;;;;5024055;28;20066;-73
2021/12/03 06:10:36;;;;;;;12.65;7.80;;;1.10;99.90;;;;;;5020000;28;20061;-75
2021/12/03 06:13:02;;;;;;;13.75;7.47;;;1.10;99.90;;;;;;4998305;28;20051;-73
2021/12/03 06:15:28;;;;;;;13.93;8.48;;;1.10;99.90;;;;;;5019901;28;20105;-75
2021/12/03 06:17:55;;;;;;;11.90;7.90;;;1.10;99.90;;;;;;5006129;28;20037;-78
2021/12/03 06:20:21;;;;;;;13.55;8.00;;;1.10;99.90;;;;;;5014161;28;20032;-74
2021/12/03 06:22:47;;;;;;;11.48;7.32;;;1.10;99.90;;;;;;5023161;28;20025;-73
2021/12/03 06:25:14;;;;;;;12.98;7.75;;;1.10;99.90;;;;;;5020623;28;20025;-75
2021/12/03 06:27:40;;;;;;;16.23;7.97;;;1.10;99.90;;;;;;5021170;28;20440;-74
2021/12/03 06:30:10;;;;;;;13.05;8.23;;;1.10;99.90;;;;;;5022955;28;20492;-74
2021/12/03 06:32:36;;;;;;;14.55;8.38;;;1.10;99.90;;;;;;5016561;28;20515;-74
2021/12/03 06:35:02;;;;;;;10.15;7.13;;;1.20;99.90;;;;;;5001139;28;20017;-75
2021/12/03 06:37:28;;;;;;;11.38;7.78;;;1.20;99.90;;;;;;5022883;28;20021;-75
2021/12/03 06:39:54;;;;;;;12.68;7.30;;;1.20;99.90;;;;;;5018609;28;20033;-74
2021/12/03 06:42:19;;;;;;;10.27;7.93;;;1.20;99.90;;;;;;5017575;28;20480;-75
2021/12/03 06:44:45;;;;;;;12.27;7.90;;;1.20;99.90;;;;;;5025280;28;20025;-75
2021/12/03 06:47:11;;;;;;;11.18;8.52;;;1.20;99.90;;;;;;5024763;28;20057;-74
2021/12/03 06:49:37;;;;;;;15.77;8.40;;;1.10;99.90;;;;;;5015552;28;20018;-75
2021/12/03 06:52:07;;;;;;;13.25;8.85;;;1.10;99.90;;;;;;5022085;28;20022;-74
2021/12/03 06:54:35;;;;;;;11.90;8.00;;;1.10;99.90;;;;;;5003655;28;20448;-74
2021/12/03 06:57:03;;;;;;;12.55;8.05;;;1.10;99.90;;;;;;5019067;28;20388;-74
2021/12/03 06:59:29;;;;;;;14.10;8.55;;;1.10;99.90;;;;;;5024111;28;20546;-75
2021/12/03 07:01:55;;;;;;;16.85;8.48;;;1.10;99.90;;;;;;5020578;28;20113;-74
2021/12/03 07:04:21;;;;;;;16.30;8.85;;;1.10;99.90;;;;;;5016554;28;20049;-74
2021/12/03 07:06:47;;;;;;;15.40;9.13;;;1.10;99.90;;;;;;5024613;28;20051;-75
2021/12/03 07:09:13;;;;;;;13.20;8.25;;;1.10;99.90;;;;;;5004099;28;20033;-74
2021/12/03 07:11:39;;;;;;;16.83;10.00;;;1.10;99.90;;;;;;5017173;28;20030;-75
2021/12/03 07:14:05;;;;;;;17.33;10.13;;;1.10;99.90;;;;;;5015085;28;20014;-75
2021/12/03 07:16:31;;;;;;;16.48;9.48;;;1.10;99.90;;;;;;5018919;28;20104;-73
2021/12/03 07:18:57;;;;;;;17.15;9.20;;;1.10;99.90;;;;;;5019367;28;20075;-73
2021/12/03 07:21:24;;;;;;;14.05;9.00;;;1.10;99.90;;;;;;5024516;28;20384;-73
2021/12/03 07:23:51;;;;;;;13.10;9.32;;;1.20;99.90;;;;;;5008201;28;20029;-75
2021/12/03 07:26:22;;;;;;;17.13;8.60;;;1.20;99.90;;;;;;4998513;28;20033;-74
2021/12/03 07:28:49;;;;;;;15.63;9.10;;;1.20;99.90;;;;;;5018265;28;20404;-74
2021/12/03 07:31:15;;;;;;;14.55;8.88;;;1.20;99.90;;;;;;5019728;28;20037;-74
2021/12/03 07:33:41;;;;;;;12.55;8.75;;;1.20;99.90;;;;;;5017430;28;20068;-74
2021/12/03 07:36:08;;;;;;;17.85;9.00;;;1.10;99.90;;;;;;5023758;28;20041;-75
2021/12/03 07:38:35;;;;;;;16.30;9.38;;;1.10;99.90;;;;;;5017378;28;20037;-75
2021/12/03 07:41:02;;;;;;;13.45;9.50;;;1.10;99.90;;;;;;5011340;28;20026;-75
2021/12/03 07:43:28;;;;;;;15.13;9.98;;;1.10;99.90;;;;;;5023639;28;20033;-76
2021/12/03 07:45:54;;;;;;;16.70;10.40;;;1.10;99.90;;;;;;5017685;28;20916;-76
2021/12/03 07:48:23;;;;;;;16.05;9.90;;;1.10;99.90;;;;;;5024408;28;20026;-76
2021/12/03 07:50:52;;;;;;;15.43;9.77;;;1.10;99.90;;;;;;5017658;28;20397;-75
2021/12/03 07:53:18;;;;;;;18.67;9.38;;;1.10;99.90;;;;;;5013903;28;20419;-76
2021/12/03 07:55:46;;;;;;;15.18;9.63;;;1.10;99.90;;;;;;5015454;28;20030;-75
2021/12/03 07:58:12;;;;;;;14.30;9.25;;;1.10;99.90;;;;;;5014564;28;20045;-75
2021/12/03 08:00:38;;;;;;;32.00;11.60;;;1.10;99.90;;;;;;4999486;28;20395;-75
2021/12/03 08:03:04;;;;;;;15.32;9.30;;;1.10;99.90;;;;;;5015663;28;20049;-75
2021/12/03 08:05:30;;;;;;;16.67;10.07;;;1.20;99.90;;;;;;5002609;28;20080;-75
2021/12/03 08:07:57;;;;;;;17.08;10.52;;;1.10;99.90;;;;;;5017497;28;20030;-75
2021/12/03 08:10:24;;;;;;;14.82;9.25;;;1.20;99.90;;;;;;5017934;28;20535;-75
2021/12/03 08:12:49;;;;;;;14.35;9.02;;;1.10;99.90;;;;;;5020498;28;20037;-75
2021/12/03 08:15:16;;;;;;;18.48;9.75;;;1.20;99.90;;;;;;5028581;28;20084;-74
2021/12/03 08:17:47;;;;;;;17.27;10.70;;;1.20;99.90;;;;;;5017113;28;20092;-75
2021/12/03 08:20:13;;;;;;;14.13;9.85;;;1.30;99.90;;;;;;5018516;28;20091;-75
2021/12/03 08:22:39;;;;;;;15.23;9.75;;;1.20;99.90;;;;;;5015107;28;20026;-75
2021/12/03 08:25:05;;;;;;;17.23;10.02;;;1.20;99.90;;;;;;5020958;28;20064;-75
2021/12/03 08:27:31;;;;;;;12.70;8.82;;;1.20;99.90;;;;;;5009493;28;20113;-76
2021/12/03 08:29:57;;;;;;;17.75;9.70;;;1.20;99.90;;;;;;5025281;28;20111;-75
2021/12/03 08:32:23;;;;;;;14.23;9.95;;;1.20;99.90;;;;;;5012399;28;20026;-75
2021/12/03 08:34:49;;;;;;;15.05;9.73;;;1.20;99.90;;;;;;5014723;28;20029;-75
2021/12/03 08:37:15;;;;;;;17.20;9.77;;;1.20;99.90;;;;;;5016204;28;20057;-75
2021/12/03 08:39:41;;;;;;;15.50;10.45;;;1.30;99.90;;;;;;5014863;28;20025;-75
2021/12/03 08:42:10;;;;;;;16.00;10.43;;;1.30;99.90;;;;;;5017615;28;20079;-75
2021/12/03 08:44:35;;;;;;;19.05;10.88;;;1.30;99.90;;;;;;5025043;28;20029;-76
2021/12/03 08:47:04;;;;;;;16.20;10.70;;;1.30;99.90;;;;;;5019899;28;20080;-76
2021/12/03 08:49:32;;;;;;;17.27;11.15;;;1.30;99.90;;;;;;5023173;28;20021;-75
2021/12/03 08:57:13;;;;;;;20.42;12.60;;;1.30;99.90;;;;;;5019149;28;20073;-76
2021/12/03 08:59:39;;;;;;;22.42;12.60;;;1.30;99.90;;;;;;5022323;28;20485;-75
2021/12/03 09:02:05;;;;;;;22.80;13.25;;;1.30;99.90;;;;;;5016394;28;20096;-73
2021/12/03 09:04:30;;;;;;;20.17;13.27;;;1.30;99.90;;;;;;5018962;28;20048;-74
2021/12/03 09:06:59;;;;;;;22.83;14.27;;;1.30;99.90;;;;;;4998825;28;20079;-75
2021/12/03 09:09:25;;;;;;;26.35;15.02;;;1.30;99.90;;;;;;5002920;28;20026;-76
2021/12/03 09:11:52;;;;;;;22.88;14.27;;;1.30;99.90;;;;;;5017927;28;20038;-75
2021/12/03 09:14:40;;;;;;;21.73;15.00;;;1.30;99.90;;;;;;5013277;28;20427;-75
2021/12/03 09:19:38;;;;;;;23.13;14.98;;;1.30;99.90;;;;;;5019440;28;20040;-75
2021/12/03 09:22:04;;;;;;;22.57;15.07;;;1.40;99.90;;;;;;5013745;28;20037;-75
2021/12/03 09:24:32;;;;;;;25.20;15.23;;;1.50;99.90;;;;;;5019482;28;20344;-75
2021/12/03 09:26:58;;;;;;;29.20;15.82;;;1.50;99.90;;;;;;5017597;28;20033;-74
2021/12/03 09:29:35;;;;;;;25.42;16.23;;;1.50;99.90;;;;;;5017080;28;20400;-75
2021/12/03 09:32:01;;;;;;;26.95;16.65;;;1.60;99.90;;;;;;5012664;28;20426;-76
2021/12/03 09:34:32;;;;;;;29.85;15.77;;;1.60;99.90;;;;;;5012948;28;20065;-74
2021/12/03 09:36:58;;;;;;;27.83;16.33;;;1.70;99.90;;;;;;5014126;28;20103;-74
2021/12/03 09:39:25;;;;;;;28.00;15.48;;;1.70;99.90;;;;;;4999928;28;20501;-74
2021/12/03 09:41:53;;;;;;;29.27;15.60;;;1.60;99.90;;;;;;5011332;28;20029;-75
2021/12/03 09:44:19;;;;;;;28.90;16.55;;;1.70;99.90;;;;;;5015316;28;20108;-75
2021/12/03 09:46:46;;;;;;;27.02;16.60;;;1.70;99.90;;;;;;5017206;28;20036;-75
2021/12/03 09:49:33;;;;;;;27.55;16.42;;;1.70;99.90;;;;;;5014438;28;20480;-76
2021/12/03 09:57:08;;;;;;;51.47;22.52;;;1.80;99.90;;;;;;5015660;28;20030;-75
2021/12/03 10:10:31;;;;;;;27.25;14.40;;;1.90;99.90;;;;;;5018302;28;20029;-75
2021/12/03 10:13:18;;;;;;;30.48;15.77;;;1.90;99.90;;;;;;5018263;28;20080;-75
2021/12/03 10:16:02;;;;;;;28.38;14.88;;;2.00;99.90;;;;;;5016607;28;20034;-75
2021/12/03 10:27:15;;;;;;;30.67;16.27;;;2.00;99.90;;;;;;5014561;28;20026;-75
2021/12/03 10:32:54;;;;;;;27.13;15.07;;;2.00;99.90;;;;;;5013586;28;20105;-75
2021/12/03 10:59:32;;;;;;;31.50;16.90;;;2.20;99.90;;;;;;5016004;28;20022;-75
2021/12/03 12:01:55;;;;;;;47.65;20.52;;;2.50;99.90;;;;;;5010288;28;20030;-75
2021/12/03 13:19:44;;;;;;;44.25;17.98;;;3.20;99.90;;;;;;5022349;28;20054;-74
2021/12/03 13:34:43;;;;;;;43.38;19.02;;;3.20;99.90;;;;;;5016050;28;20029;-74
2021/12/03 14:19:08;;;;;;;35.47;15.55;;;3.20;99.90;;;;;;5019899;28;20101;-73
2021/12/03 14:21:15;;;;;;;40.80;16.85;;;3.20;99.90;;;;;;5008284;28;20029;-74
2021/12/03 14:39:42;;;;;;;36.42;16.05;;;3.00;99.90;;;;;;5009715;28;20053;-74
2021/12/03 14:49:35;;;;;;;36.15;15.77;;;3.00;99.90;;;;;;5008597;28;20058;-74
2021/12/03 14:57:45;;;;;;;33.08;15.25;;;2.90;99.90;;;;;;5003728;28;20540;-74
2021/12/03 15:00:32;;;;;;;37.35;15.75;;;2.90;99.90;;;;;;5014386;28;20118;-74
2021/12/03 15:03:10;;;;;;;35.55;15.15;;;2.90;99.90;;;;;;5019913;28;20030;-74
2021/12/03 15:06:09;;;;;;;33.65;15.32;;;2.80;99.90;;;;;;4999878;28;20495;-75
2021/12/03 15:09:30;;;;;;;38.83;16.08;;;2.80;99.90;;;;;;5017059;28;20095;-74
2021/12/03 15:32:26;;;;;;;26.45;13.68;;;2.70;99.90;;;;;;5023580;28;20021;-75
2021/12/03 15:35:00;;;;;;;26.88;13.55;;;2.60;99.90;;;;;;5019846;28;20022;-75
2021/12/03 16:04:33;;;;;;;25.05;12.50;;;2.50;99.90;;;;;;5015134;28;20029;-74
2021/12/03 16:12:16;;;;;;;26.88;12.85;;;2.50;99.90;;;;;;5019419;28;20053;-75
2021/12/03 16:17:25;;;;;;;22.00;12.27;;;2.50;99.90;;;;;;5020469;28;20025;-75
2021/12/03 16:43:33;;;;;;;21.95;12.73;;;2.50;99.90;;;;;;5014422;28;20038;-75
2021/12/03 16:52:37;;;;;;;24.35;12.35;;;2.50;99.90;;;;;;5019414;28;20025;-74
2021/12/03 16:55:04;;;;;;;20.38;10.90;;;2.50;99.90;;;;;;5009574;28;20025;-75
2021/12/03 16:57:36;;;;;;;19.95;11.73;;;2.50;99.90;;;;;;5015322;28;20034;-74
2021/12/03 17:00:19;;;;;;;21.80;12.35;;;2.50;99.90;;;;;;5018579;28;20022;-75
2021/12/03 17:02:52;;;;;;;19.30;11.98;;;2.60;99.90;;;;;;4997018;28;20515;-75
2021/12/03 17:08:21;;;;;;;18.27;10.73;;;2.60;99.90;;;;;;5018889;28;20026;-75
2021/12/03 17:13:56;;;;;;;24.52;12.55;;;2.60;99.90;;;;;;5001756;28;20033;-74
2021/12/03 17:48:42;;;;;;;18.88;10.23;;;2.70;99.90;;;;;;4995824;28;20088;-74
2021/12/03 17:58:27;;;;;;;20.13;11.02;;;2.60;99.90;;;;;;5007894;28;20021;-74
2021/12/03 18:01:05;;;;;;;21.27;10.80;;;2.70;99.90;;;;;;5011379;28;20065;-73
2021/12/03 18:03:44;;;;;;;24.38;11.70;;;2.70;99.90;;;;;;5017000;28;20381;-74
2021/12/03 18:06:47;;;;;;;22.45;10.82;;;2.70;99.90;;;;;;5021121;28;20504;-73
2021/12/03 18:09:40;;;;;;;20.50;11.77;;;2.70;99.90;;;;;;5019181;28;20025;-73
2021/12/03 18:57:51;;;;;;;19.63;11.93;;;3.00;99.90;;;;;;5015899;28;20022;-74
2021/12/03 19:00:18;;;;;;;19.05;12.50;;;3.10;99.90;;;;;;5016297;28;20072;-73
2021/12/03 19:02:49;;;;;;;20.92;12.73;;;3.10;99.90;;;;;;5015060;28;20439;-73
2021/12/03 19:05:25;;;;;;;19.10;12.55;;;3.10;99.90;;;;;;5015889;28;20040;-75
2021/12/03 19:08:16;;;;;;;18.70;12.75;;;3.10;99.90;;;;;;5013199;28;20037;-75
2021/12/03 19:10:45;;;;;;;19.42;12.80;;;3.10;99.90;;;;;;5018142;28;20061;-75
2021/12/03 19:13:16;;;;;;;23.38;13.65;;;3.20;99.90;;;;;;5016796;28;20038;-75
2021/12/03 19:15:43;;;;;;;21.50;13.10;;;3.20;99.90;;;;;;4999489;28;20583;-74
2021/12/03 19:18:09;;;;;;;20.55;12.80;;;3.20;99.90;;;;;;5020903;28;20032;-76
2021/12/03 19:20:39;;;;;;;22.30;13.18;;;3.20;99.90;;;;;;5017605;28;20030;-73
2021/12/03 19:23:04;;;;;;;19.67;13.30;;;3.20;99.90;;;;;;5017374;28;20434;-75
2021/12/03 19:25:31;;;;;;;20.02;12.23;;;3.20;99.90;;;;;;5019165;28;20108;-75
2021/12/03 19:27:56;;;;;;;21.63;13.63;;;3.20;99.90;;;;;;4999812;28;20041;-77
2021/12/03 19:30:22;;;;;;;18.77;12.55;;;3.20;99.90;;;;;;5021860;28;20045;-76
2021/12/03 19:32:48;;;;;;;19.50;13.00;;;3.20;99.90;;;;;;5040274;28;20072;-77
2021/12/03 19:35:14;;;;;;;22.58;12.95;;;3.30;99.90;;;;;;5024901;28;20403;-77
2021/12/03 19:37:39;;;;;;;21.10;13.25;;;3.30;99.90;;;;;;5016939;28;20044;-74
2021/12/03 19:40:08;;;;;;;19.13;12.30;;;3.30;99.90;;;;;;5019473;28;20573;-74
2021/12/03 19:42:40;;;;;;;20.67;13.48;;;3.30;99.90;;;;;;5015416;28;20025;-74
2021/12/03 19:45:09;;;;;;;22.30;13.65;;;3.30;99.90;;;;;;5015561;28;20097;-74
2021/12/03 19:47:48;;;;;;;21.65;13.25;;;3.40;99.90;;;;;;5022142;28;20033;-76
2021/12/03 19:50:32;;;;;;;23.65;14.02;;;3.40;99.90;;;;;;5018604;28;20041;-74
2021/12/03 19:53:02;;;;;;;22.73;13.63;;;3.40;99.90;;;;;;5016734;28;20086;-74
2021/12/03 19:55:28;;;;;;;23.63;14.55;;;3.40;99.90;;;;;;5016962;28;20030;-73
2021/12/03 19:57:54;;;;;;;21.73;14.35;;;3.40;99.90;;;;;;5013383;28;20034;-74
2021/12/03 20:00:25;;;;;;;24.75;16.25;;;3.40;99.90;;;;;;4997586;28;20090;-72
2021/12/03 20:02:51;;;;;;;23.23;15.77;;;3.50;99.90;;;;;;5012600;28;20040;-72
2021/12/03 20:05:16;;;;;;;23.80;15.45;;;3.50;99.90;;;;;;5013161;28;20112;-73
2021/12/03 20:07:44;;;;;;;24.23;15.68;;;3.50;99.90;;;;;;4997206;28;20186;-74
2021/12/03 20:10:11;;;;;;;27.23;16.23;;;3.50;99.90;;;;;;5017148;28;20034;-75
2021/12/03 20:12:38;;;;;;;25.33;16.30;;;3.50;99.90;;;;;;5020346;28;20056;-74
2021/12/03 20:15:08;;;;;;;27.70;18.45;;;3.50;99.90;;;;;;5017414;28;20049;-75
2021/12/03 20:17:37;;;;;;;29.10;18.25;;;3.50;99.90;;;;;;5016966;28;20029;-74
2021/12/03 20:20:06;;;;;;;28.60;17.67;;;3.50;99.90;;;;;;5014258;28;20041;-75
2021/12/03 20:27:46;;;;;;;28.33;18.15;;;3.50;99.90;;;;;;5018714;28;20026;-73
2021/12/03 20:38:13;;;;;;;32.70;20.25;;;3.70;99.90;;;;;;5018929;28;20053;-76
2021/12/03 20:40:38;;;;;;;37.00;21.10;;;3.70;99.90;;;;;;5016631;28;20096;-77